Alpine Haven, Vermont
Current Conditions -  °F | °C
As of 3:35 PM on Friday 28 Nov 2014 (Local Time) from KEFK Reporting Station
Light Snow Light Snow  
Wind Chill: -11°   Ceiling: 2000
Heat Index: -6°   Visibility: 1.2mi
Dew Point: -9°   Wind: 7mph
Humidity: 83%   Direction: 320°NW
Pressure: 30.07"   Gusts: NA
Location:  44.8557°N, 72.6016°W
Report Text: KEFK 282035Z AUTO 32006KT 1 1/4SM -SN OVC020 M06/M09 A3007 RMK AO2 T10621087
Loading
Personal Weather Stations






























Interactive Weather Map New forecast layout! Learn more

10-Day Weather Forecast

Advertisements
Track Severe Weather on mobile